createdAt,value
2022-08-01T00:09:50.439Z,1017.2
2022-08-01T00:24:46.606Z,1017.1
2022-08-01T00:39:42.023Z,1017.1
2022-08-01T00:54:38.236Z,1017.1
2022-08-01T01:09:34.058Z,1017.1
2022-08-01T01:24:30.554Z,1017.1
2022-08-01T01:39:27.211Z,1017.1
2022-08-01T01:54:23.594Z,1017.2
2022-08-01T02:09:19.998Z,1017.2
2022-08-01T02:24:16.321Z,1017.2
2022-08-01T02:39:12.403Z,1017.2
2022-08-01T02:54:08.737Z,1017.2
2022-08-01T03:09:04.846Z,1017.2
2022-08-01T03:24:01.271Z,1017.2
2022-08-01T03:38:57.499Z,1017.3
2022-08-01T03:53:53.461Z,1017.3
2022-08-01T04:08:49.631Z,1017.3
2022-08-01T04:23:45.614Z,1017.3
2022-08-01T04:38:42.033Z,1017.5
2022-08-01T04:53:38.389Z,1017.5
2022-08-01T05:08:34.595Z,1017.6
2022-08-01T05:23:36.663Z,1017.7
2022-08-01T05:38:27.114Z,1017.7
2022-08-01T05:53:23.484Z,1017.8
2022-08-01T06:08:19.863Z,1017.8
2022-08-01T06:23:31.346Z,1017.9
2022-08-01T06:38:12.466Z,1017.9
2022-08-01T06:53:08.416Z,1017.8
2022-08-01T07:08:05.519Z,1017.9
2022-08-01T07:23:02.284Z,1018
2022-08-01T07:37:58.708Z,1018
2022-08-01T07:52:54.337Z,1018.1
2022-08-01T08:07:50.368Z,1018.1
2022-08-01T08:22:46.735Z,1018.2
2022-08-01T08:37:47.510Z,1018.1
2022-08-01T08:52:39.891Z,1018.2
2022-08-01T09:07:35.969Z,1018.3
2022-08-01T09:22:32.323Z,1018.3
2022-08-01T09:37:28.926Z,1018.4
2022-08-01T09:52:25.794Z,1018.3
2022-08-01T10:07:21.414Z,1018.5
2022-08-01T10:22:17.486Z,1018.4
2022-08-01T10:37:14.077Z,1018.2
2022-08-01T10:52:10.568Z,1018.1
2022-08-01T11:07:09.995Z,1018
2022-08-01T11:22:04.427Z,1018
2022-08-01T11:37:00.477Z,1018.1
2022-08-01T11:51:56.122Z,1018.1
2022-08-01T12:06:52.464Z,1018
2022-08-01T12:21:50.337Z,1018.1
2022-08-01T12:36:44.811Z,1018
2022-08-01T12:51:41.617Z,1018.1
2022-08-01T13:06:37.997Z,1018.2
2022-08-01T13:21:53.492Z,1018.1
2022-08-01T13:36:30.654Z,1018.1
2022-08-01T13:51:27.056Z,1018
2022-08-01T14:06:23.236Z,1018
2022-08-01T14:21:19.579Z,1018
2022-08-01T14:36:29.802Z,1018.1
2022-08-01T14:51:12.148Z,1017.9
2022-08-01T15:06:08.706Z,1017.8
2022-08-01T15:21:04.974Z,1017.8
2022-08-01T15:36:01.276Z,1017.9
2022-08-01T15:50:58.254Z,1017.9
2022-08-01T16:05:53.915Z,1018
2022-08-01T16:20:50.083Z,1018
2022-08-01T16:35:48.735Z,1017.9
2022-08-01T16:50:42.775Z,1017.7
2022-08-01T17:05:39.198Z,1017.7
2022-08-01T17:20:35.643Z,1017.8
2022-08-01T17:35:31.457Z,1017.9
2022-08-01T17:50:27.484Z,1017.9
2022-08-01T18:05:23.641Z,1018.1
2022-08-01T18:20:19.710Z,1018.2
2022-08-01T18:35:16.272Z,1018.3
2022-08-01T18:50:12.700Z,1018.4
2022-08-01T19:05:08.992Z,1018.5
2022-08-01T19:20:04.811Z,1018.7
2022-08-01T19:35:00.570Z,1018.9
2022-08-01T19:49:56.117Z,1019.2
2022-08-01T20:04:52.075Z,1019.3
2022-08-01T20:19:48.266Z,1019.4
2022-08-01T20:34:43.716Z,1019.4
2022-08-01T20:49:39.879Z,1019.6
2022-08-01T22:04:19.785Z,1019.8
2022-08-01T22:19:29.672Z,1019.9
2022-08-01T22:34:11.585Z,1020
2022-08-01T22:49:08.836Z,1020
2022-08-01T23:04:03.743Z,1020.1
2022-08-01T23:18:59.425Z,1020.1
2022-08-01T23:33:55.183Z,1020
2022-08-01T23:48:51.061Z,1020.1
